sensor_id;sensor_type;location;lat;lon;timestamp;P1;durP1;ratioP1;P2;durP2;ratioP2
3967;SDS011;9221;42.646;23.380;2023-10-13T00:00:32;8.67;;;3.50;;
3967;SDS011;9221;42.646;23.380;2023-10-13T00:03:07;7.83;;;3.20;;
3967;SDS011;9221;42.646;23.380;2023-10-13T00:05:43;10.07;;;3.20;;
3967;SDS011;9221;42.646;23.380;2023-10-13T00:08:09;6.67;;;3.40;;
3967;SDS011;9221;42.646;23.380;2023-10-13T00:10:35;5.63;;;3.17;;
3967;SDS011;9221;42.646;23.380;2023-10-13T00:13:02;7.37;;;3.23;;
3967;SDS011;9221;42.646;23.380;2023-10-13T00:15:41;5.00;;;2.70;;
3967;SDS011;9221;42.646;23.380;2023-10-13T00:18:29;8.50;;;3.40;;
3967;SDS011;9221;42.646;23.380;2023-10-13T00:20:59;5.70;;;3.40;;
3967;SDS011;9221;42.646;23.380;2023-10-13T00:23:25;16.80;;;3.50;;
3967;SDS011;9221;42.646;23.380;2023-10-13T00:25:57;8.80;;;3.80;;
3967;SDS011;9221;42.646;23.380;2023-10-13T00:28:24;9.33;;;3.50;;
3967;SDS011;9221;42.646;23.380;2023-10-13T00:30:51;5.80;;;2.93;;
3967;SDS011;9221;42.646;23.380;2023-10-13T00:33:18;10.80;;;4.10;;
3967;SDS011;9221;42.646;23.380;2023-10-13T00:35:49;6.10;;;3.27;;
3967;SDS011;9221;42.646;23.380;2023-10-13T00:38:16;8.10;;;3.70;;
3967;SDS011;9221;42.646;23.380;2023-10-13T00:40:44;18.30;;;3.97;;
3967;SDS011;9221;42.646;23.380;2023-10-13T00:43:17;8.93;;;3.67;;
3967;SDS011;9221;42.646;23.380;2023-10-13T00:45:44;8.57;;;3.63;;
3967;SDS011;9221;42.646;23.380;2023-10-13T00:48:21;10.73;;;3.77;;
3967;SDS011;9221;42.646;23.380;2023-10-13T00:50:54;9.83;;;3.90;;
3967;SDS011;9221;42.646;23.380;2023-10-13T00:53:22;9.27;;;3.63;;
3967;SDS011;9221;42.646;23.380;2023-10-13T00:55:50;8.63;;;4.13;;
3967;SDS011;9221;42.646;23.380;2023-10-13T00:58:16;7.23;;;3.70;;
3967;SDS011;9221;42.646;23.380;2023-10-13T01:00:47;8.10;;;3.97;;
3967;SDS011;9221;42.646;23.380;2023-10-13T01:03:22;8.03;;;3.63;;
3967;SDS011;9221;42.646;23.380;2023-10-13T01:05:55;12.77;;;4.10;;
3967;SDS011;9221;42.646;23.380;2023-10-13T01:08:35;8.90;;;3.43;;
3967;SDS011;9221;42.646;23.380;2023-10-13T01:11:03;8.37;;;3.17;;
3967;SDS011;9221;42.646;23.380;2023-10-13T01:13:32;8.70;;;3.47;;
3967;SDS011;9221;42.646;23.380;2023-10-13T01:16:01;8.40;;;3.83;;
3967;SDS011;9221;42.646;23.380;2023-10-13T01:18:27;9.57;;;3.90;;
3967;SDS011;9221;42.646;23.380;2023-10-13T01:20:54;10.30;;;4.20;;
3967;SDS011;9221;42.646;23.380;2023-10-13T01:23:24;12.90;;;3.87;;
3967;SDS011;9221;42.646;23.380;2023-10-13T01:25:53;9.03;;;3.43;;
3967;SDS011;9221;42.646;23.380;2023-10-13T01:28:21;10.47;;;4.00;;
3967;SDS011;9221;42.646;23.380;2023-10-13T01:30:47;5.43;;;3.20;;
3967;SDS011;9221;42.646;23.380;2023-10-13T01:33:16;9.07;;;3.90;;
3967;SDS011;9221;42.646;23.380;2023-10-13T01:35:42;6.80;;;3.40;;
3967;SDS011;9221;42.646;23.380;2023-10-13T01:38:12;10.63;;;4.07;;
3967;SDS011;9221;42.646;23.380;2023-10-13T01:40:39;11.67;;;4.60;;
3967;SDS011;9221;42.646;23.380;2023-10-13T01:43:04;7.17;;;3.73;;
3967;SDS011;9221;42.646;23.380;2023-10-13T01:45:35;14.27;;;3.93;;
3967;SDS011;9221;42.646;23.380;2023-10-13T01:48:04;6.80;;;3.40;;
3967;SDS011;9221;42.646;23.380;2023-10-13T01:50:30;9.70;;;3.80;;
3967;SDS011;9221;42.646;23.380;2023-10-13T01:52:55;8.00;;;3.37;;
3967;SDS011;9221;42.646;23.380;2023-10-13T01:55:40;20.77;;;4.60;;
3967;SDS011;9221;42.646;23.380;2023-10-13T01:58:12;12.97;;;5.03;;
3967;SDS011;9221;42.646;23.380;2023-10-13T02:00:43;7.60;;;3.20;;
3967;SDS011;9221;42.646;23.380;2023-10-13T02:03:10;8.67;;;4.17;;
3967;SDS011;9221;42.646;23.380;2023-10-13T02:05:43;9.70;;;3.60;;
3967;SDS011;9221;42.646;23.380;2023-10-13T02:08:22;9.43;;;4.30;;
3967;SDS011;9221;42.646;23.380;2023-10-13T02:10:52;8.10;;;3.97;;
3967;SDS011;9221;42.646;23.380;2023-10-13T02:13:19;10.53;;;4.10;;
3967;SDS011;9221;42.646;23.380;2023-10-13T02:15:47;10.73;;;4.50;;
3967;SDS011;9221;42.646;23.380;2023-10-13T02:18:17;15.83;;;3.80;;
3967;SDS011;9221;42.646;23.380;2023-10-13T02:20:46;12.43;;;4.37;;
3967;SDS011;9221;42.646;23.380;2023-10-13T02:23:19;9.97;;;4.53;;
3967;SDS011;9221;42.646;23.380;2023-10-13T02:25:45;14.33;;;4.07;;
3967;SDS011;9221;42.646;23.380;2023-10-13T02:28:11;10.03;;;4.07;;
3967;SDS011;9221;42.646;23.380;2023-10-13T02:30:46;8.00;;;3.70;;
3967;SDS011;9221;42.646;23.380;2023-10-13T02:33:16;8.90;;;3.77;;
3967;SDS011;9221;42.646;23.380;2023-10-13T02:35:54;8.73;;;3.57;;
3967;SDS011;9221;42.646;23.380;2023-10-13T02:38:21;8.70;;;3.73;;
3967;SDS011;9221;42.646;23.380;2023-10-13T02:41:00;8.13;;;3.80;;
3967;SDS011;9221;42.646;23.380;2023-10-13T02:43:35;9.03;;;3.10;;
3967;SDS011;9221;42.646;23.380;2023-10-13T02:46:01;9.30;;;3.17;;
3967;SDS011;9221;42.646;23.380;2023-10-13T02:48:27;9.93;;;3.83;;
3967;SDS011;9221;42.646;23.380;2023-10-13T02:51:06;9.67;;;3.30;;
3967;SDS011;9221;42.646;23.380;2023-10-13T02:53:49;8.20;;;3.60;;
3967;SDS011;9221;42.646;23.380;2023-10-13T02:56:15;8.87;;;3.60;;
3967;SDS011;9221;42.646;23.380;2023-10-13T02:58:48;7.57;;;3.37;;
3967;SDS011;9221;42.646;23.380;2023-10-13T03:01:18;12.57;;;3.90;;
3967;SDS011;9221;42.646;23.380;2023-10-13T03:03:48;12.53;;;4.17;;
3967;SDS011;9221;42.646;23.380;2023-10-13T03:06:23;10.40;;;4.27;;
3967;SDS011;9221;42.646;23.380;2023-10-13T03:08:57;10.27;;;4.10;;
3967;SDS011;9221;42.646;23.380;2023-10-13T03:11:47;18.93;;;3.87;;
3967;SDS011;9221;42.646;23.380;2023-10-13T03:17:00;8.93;;;3.90;;
3967;SDS011;9221;42.646;23.380;2023-10-13T03:19:29;7.03;;;3.20;;
3967;SDS011;9221;42.646;23.380;2023-10-13T03:22:00;12.60;;;3.90;;
3967;SDS011;9221;42.646;23.380;2023-10-13T03:24:52;6.80;;;3.77;;
3967;SDS011;9221;42.646;23.380;2023-10-13T03:27:18;9.33;;;3.73;;
3967;SDS011;9221;42.646;23.380;2023-10-13T03:30:04;9.67;;;3.67;;
3967;SDS011;9221;42.646;23.380;2023-10-13T03:32:35;12.33;;;4.93;;
3967;SDS011;9221;42.646;23.380;2023-10-13T03:35:07;8.80;;;4.23;;
3967;SDS011;9221;42.646;23.380;2023-10-13T03:37:38;10.60;;;3.50;;
3967;SDS011;9221;42.646;23.380;2023-10-13T03:40:05;7.13;;;3.17;;
3967;SDS011;9221;42.646;23.380;2023-10-13T03:42:50;10.20;;;3.80;;
3967;SDS011;9221;42.646;23.380;2023-10-13T03:45:43;11.17;;;4.00;;
3967;SDS011;9221;42.646;23.380;2023-10-13T03:48:16;17.40;;;5.17;;
3967;SDS011;9221;42.646;23.380;2023-10-13T03:50:56;9.97;;;4.30;;
3967;SDS011;9221;42.646;23.380;2023-10-13T03:53:31;14.07;;;3.90;;
3967;SDS011;9221;42.646;23.380;2023-10-13T03:56:01;9.90;;;4.30;;
3967;SDS011;9221;42.646;23.380;2023-10-13T03:58:34;11.67;;;3.93;;
3967;SDS011;9221;42.646;23.380;2023-10-13T04:01:04;9.13;;;3.80;;
3967;SDS011;9221;42.646;23.380;2023-10-13T04:03:30;12.53;;;3.80;;
3967;SDS011;9221;42.646;23.380;2023-10-13T04:06:01;15.00;;;4.47;;
3967;SDS011;9221;42.646;23.380;2023-10-13T04:08:33;11.07;;;4.37;;
3967;SDS011;9221;42.646;23.380;2023-10-13T04:11:07;11.17;;;4.30;;
3967;SDS011;9221;42.646;23.380;2023-10-13T04:13:51;7.43;;;3.57;;
3967;SDS011;9221;42.646;23.380;2023-10-13T04:16:35;8.57;;;3.77;;
3967;SDS011;9221;42.646;23.380;2023-10-13T04:19:02;11.53;;;4.17;;
3967;SDS011;9221;42.646;23.380;2023-10-13T04:21:27;8.80;;;3.70;;
3967;SDS011;9221;42.646;23.380;2023-10-13T04:24:08;14.20;;;5.23;;
3967;SDS011;9221;42.646;23.380;2023-10-13T04:26:44;12.03;;;4.80;;
3967;SDS011;9221;42.646;23.380;2023-10-13T04:29:28;16.17;;;4.77;;
3967;SDS011;9221;42.646;23.380;2023-10-13T04:32:13;17.60;;;4.70;;
3967;SDS011;9221;42.646;23.380;2023-10-13T04:34:40;11.00;;;4.63;;
3967;SDS011;9221;42.646;23.380;2023-10-13T04:37:11;24.07;;;4.50;;
3967;SDS011;9221;42.646;23.380;2023-10-13T04:39:57;8.57;;;4.57;;
3967;SDS011;9221;42.646;23.380;2023-10-13T04:42:35;11.10;;;4.60;;
3967;SDS011;9221;42.646;23.380;2023-10-13T04:45:18;8.67;;;4.20;;
3967;SDS011;9221;42.646;23.380;2023-10-13T04:47:54;8.60;;;3.80;;
3967;SDS011;9221;42.646;23.380;2023-10-13T04:50:38;9.20;;;4.00;;
3967;SDS011;9221;42.646;23.380;2023-10-13T04:53:10;11.40;;;4.57;;
3967;SDS011;9221;42.646;23.380;2023-10-13T04:55:57;17.47;;;5.10;;
3967;SDS011;9221;42.646;23.380;2023-10-13T04:58:29;8.87;;;3.97;;
3967;SDS011;9221;42.646;23.380;2023-10-13T05:01:00;16.10;;;6.43;;
3967;SDS011;9221;42.646;23.380;2023-10-13T05:03:48;12.73;;;4.83;;
3967;SDS011;9221;42.646;23.380;2023-10-13T05:06:33;10.80;;;4.07;;
3967;SDS011;9221;42.646;23.380;2023-10-13T05:09:11;16.37;;;5.07;;
3967;SDS011;9221;42.646;23.380;2023-10-13T05:11:56;16.00;;;5.03;;
3967;SDS011;9221;42.646;23.380;2023-10-13T05:14:40;19.60;;;6.63;;
3967;SDS011;9221;42.646;23.380;2023-10-13T05:17:24;11.23;;;4.80;;
3967;SDS011;9221;42.646;23.380;2023-10-13T05:20:08;13.87;;;5.27;;
3967;SDS011;9221;42.646;23.380;2023-10-13T05:22:52;24.60;;;8.07;;
3967;SDS011;9221;42.646;23.380;2023-10-13T05:25:37;19.83;;;5.10;;
3967;SDS011;9221;42.646;23.380;2023-10-13T05:28:21;10.53;;;5.43;;
3967;SDS011;9221;42.646;23.380;2023-10-13T05:31:06;12.07;;;4.87;;
3967;SDS011;9221;42.646;23.380;2023-10-13T05:33:50;10.17;;;4.97;;
3967;SDS011;9221;42.646;23.380;2023-10-13T05:36:34;11.27;;;4.17;;
3967;SDS011;9221;42.646;23.380;2023-10-13T05:39:18;13.60;;;4.80;;
3967;SDS011;9221;42.646;23.380;2023-10-13T05:42:02;15.40;;;4.60;;
3967;SDS011;9221;42.646;23.380;2023-10-13T05:44:46;10.37;;;4.77;;
3967;SDS011;9221;42.646;23.380;2023-10-13T05:47:34;7.77;;;3.63;;
3967;SDS011;9221;42.646;23.380;2023-10-13T05:50:03;13.73;;;4.93;;
3967;SDS011;9221;42.646;23.380;2023-10-13T05:52:38;15.73;;;5.07;;
3967;SDS011;9221;42.646;23.380;2023-10-13T05:55:36;9.73;;;4.03;;
3967;SDS011;9221;42.646;23.380;2023-10-13T05:58:20;12.57;;;3.97;;
3967;SDS011;9221;42.646;23.380;2023-10-13T06:01:04;14.40;;;5.30;;
3967;SDS011;9221;42.646;23.380;2023-10-13T06:03:48;23.63;;;4.50;;
3967;SDS011;9221;42.646;23.380;2023-10-13T06:06:32;15.40;;;5.20;;
3967;SDS011;9221;42.646;23.380;2023-10-13T06:09:16;25.70;;;5.17;;
3967;SDS011;9221;42.646;23.380;2023-10-13T06:11:59;14.77;;;5.27;;
3967;SDS011;9221;42.646;23.380;2023-10-13T06:14:47;19.73;;;5.83;;
3967;SDS011;9221;42.646;23.380;2023-10-13T06:17:30;12.27;;;5.63;;
3967;SDS011;9221;42.646;23.380;2023-10-13T06:20:14;17.30;;;5.67;;
3967;SDS011;9221;42.646;23.380;2023-10-13T06:22:59;21.33;;;7.03;;
3967;SDS011;9221;42.646;23.380;2023-10-13T06:25:42;23.93;;;5.77;;
3967;SDS011;9221;42.646;23.380;2023-10-13T06:28:33;15.03;;;6.03;;
3967;SDS011;9221;42.646;23.380;2023-10-13T06:31:09;19.70;;;6.90;;
3967;SDS011;9221;42.646;23.380;2023-10-13T06:33:47;16.07;;;6.30;;
3967;SDS011;9221;42.646;23.380;2023-10-13T06:36:13;16.17;;;6.03;;
3967;SDS011;9221;42.646;23.380;2023-10-13T06:38:39;15.40;;;6.17;;
3967;SDS011;9221;42.646;23.380;2023-10-13T06:41:05;14.53;;;6.10;;
3967;SDS011;9221;42.646;23.380;2023-10-13T06:43:32;32.33;;;6.13;;
3967;SDS011;9221;42.646;23.380;2023-10-13T06:46:04;11.93;;;6.00;;
3967;SDS011;9221;42.646;23.380;2023-10-13T06:48:30;19.83;;;5.40;;
3967;SDS011;9221;42.646;23.380;2023-10-13T06:50:59;17.47;;;6.20;;
3967;SDS011;9221;42.646;23.380;2023-10-13T06:53:51;13.73;;;5.87;;
3967;SDS011;9221;42.646;23.380;2023-10-13T06:56:21;11.37;;;5.97;;
3967;SDS011;9221;42.646;23.380;2023-10-13T06:58:48;17.57;;;6.13;;
3967;SDS011;9221;42.646;23.380;2023-10-13T07:01:14;22.73;;;6.67;;
3967;SDS011;9221;42.646;23.380;2023-10-13T07:03:47;21.47;;;6.00;;
3967;SDS011;9221;42.646;23.380;2023-10-13T07:06:22;10.30;;;5.50;;
3967;SDS011;9221;42.646;23.380;2023-10-13T07:08:48;18.70;;;6.40;;
3967;SDS011;9221;42.646;23.380;2023-10-13T07:11:25;15.70;;;6.53;;
3967;SDS011;9221;42.646;23.380;2023-10-13T07:14:07;18.53;;;6.83;;
3967;SDS011;9221;42.646;23.380;2023-10-13T07:16:42;25.17;;;7.67;;
3967;SDS011;9221;42.646;23.380;2023-10-13T07:19:23;17.37;;;7.93;;
3967;SDS011;9221;42.646;23.380;2023-10-13T07:21:50;19.33;;;7.07;;
3967;SDS011;9221;42.646;23.380;2023-10-13T07:24:23;25.50;;;7.33;;
3967;SDS011;9221;42.646;23.380;2023-10-13T07:26:49;28.17;;;6.43;;
3967;SDS011;9221;42.646;23.380;2023-10-13T07:29:22;23.33;;;7.40;;
3967;SDS011;9221;42.646;23.380;2023-10-13T07:31:50;14.93;;;7.33;;
3967;SDS011;9221;42.646;23.380;2023-10-13T07:34:15;14.93;;;6.50;;
3967;SDS011;9221;42.646;23.380;2023-10-13T07:36:57;22.20;;;6.90;;
3967;SDS011;9221;42.646;23.380;2023-10-13T07:39:28;15.57;;;6.43;;
3967;SDS011;9221;42.646;23.380;2023-10-13T07:42:04;20.87;;;7.57;;
3967;SDS011;9221;42.646;23.380;2023-10-13T07:44:31;15.63;;;7.27;;
3967;SDS011;9221;42.646;23.380;2023-10-13T07:46:58;12.90;;;6.77;;
3967;SDS011;9221;42.646;23.380;2023-10-13T07:49:43;26.33;;;6.30;;
3967;SDS011;9221;42.646;23.380;2023-10-13T07:52:08;14.87;;;6.50;;
3967;SDS011;9221;42.646;23.380;2023-10-13T07:54:48;17.37;;;6.40;;
3967;SDS011;9221;42.646;23.380;2023-10-13T07:57:32;25.23;;;6.37;;
3967;SDS011;9221;42.646;23.380;2023-10-13T07:59:57;19.43;;;6.40;;
3967;SDS011;9221;42.646;23.380;2023-10-13T08:03:01;20.03;;;6.47;;
3967;SDS011;9221;42.646;23.380;2023-10-13T08:05:42;26.87;;;7.53;;
3967;SDS011;9221;42.646;23.380;2023-10-13T08:08:23;22.53;;;6.20;;
3967;SDS011;9221;42.646;23.380;2023-10-13T08:10:51;15.90;;;6.50;;
3967;SDS011;9221;42.646;23.380;2023-10-13T08:13:21;17.23;;;6.80;;
3967;SDS011;9221;42.646;23.380;2023-10-13T08:15:47;22.57;;;6.73;;
3967;SDS011;9221;42.646;23.380;2023-10-13T08:18:13;22.37;;;8.37;;
3967;SDS011;9221;42.646;23.380;2023-10-13T08:20:56;21.50;;;8.97;;
3967;SDS011;9221;42.646;23.380;2023-10-13T08:23:31;20.83;;;8.10;;
3967;SDS011;9221;42.646;23.380;2023-10-13T08:26:24;18.30;;;6.90;;
3967;SDS011;9221;42.646;23.380;2023-10-13T08:29:02;18.93;;;6.70;;
3967;SDS011;9221;42.646;23.380;2023-10-13T08:31:47;27.23;;;8.13;;
3967;SDS011;9221;42.646;23.380;2023-10-13T08:34:32;25.50;;;8.50;;
3967;SDS011;9221;42.646;23.380;2023-10-13T08:37:29;27.70;;;9.70;;
3967;SDS011;9221;42.646;23.380;2023-10-13T08:40:00;41.47;;;10.57;;
3967;SDS011;9221;42.646;23.380;2023-10-13T08:42:35;27.73;;;10.17;;
3967;SDS011;9221;42.646;23.380;2023-10-13T08:45:11;43.40;;;10.93;;
3967;SDS011;9221;42.646;23.380;2023-10-13T08:47:53;31.57;;;9.80;;
3967;SDS011;9221;42.646;23.380;2023-10-13T08:50:32;31.90;;;10.97;;
3967;SDS011;9221;42.646;23.380;2023-10-13T08:56:13;28.80;;;9.10;;
3967;SDS011;9221;42.646;23.380;2023-10-13T08:58:38;24.23;;;8.80;;
3967;SDS011;9221;42.646;23.380;2023-10-13T09:04:08;19.03;;;8.23;;
3967;SDS011;9221;42.646;23.380;2023-10-13T09:06:47;20.27;;;8.20;;
3967;SDS011;9221;42.646;23.380;2023-10-13T09:12:24;21.13;;;7.70;;
3967;SDS011;9221;42.646;23.380;2023-10-13T09:14:56;23.47;;;8.70;;
3967;SDS011;9221;42.646;23.380;2023-10-13T09:17:23;28.03;;;8.63;;
3967;SDS011;9221;42.646;23.380;2023-10-13T09:20:01;25.10;;;9.57;;
3967;SDS011;9221;42.646;23.380;2023-10-13T09:22:47;21.20;;;8.57;;
3967;SDS011;9221;42.646;23.380;2023-10-13T09:25:29;21.00;;;9.90;;
3967;SDS011;9221;42.646;23.380;2023-10-13T09:28:00;31.50;;;9.70;;
3967;SDS011;9221;42.646;23.380;2023-10-13T09:30:26;19.70;;;8.90;;
3967;SDS011;9221;42.646;23.380;2023-10-13T09:33:02;23.37;;;8.80;;
3967;SDS011;9221;42.646;23.380;2023-10-13T09:35:40;17.93;;;9.23;;
3967;SDS011;9221;42.646;23.380;2023-10-13T09:38:13;18.70;;;9.00;;
3967;SDS011;9221;42.646;23.380;2023-10-13T09:40:40;23.90;;;7.90;;
3967;SDS011;9221;42.646;23.380;2023-10-13T09:43:15;36.30;;;8.93;;
3967;SDS011;9221;42.646;23.380;2023-10-13T09:45:43;28.50;;;9.20;;
3967;SDS011;9221;42.646;23.380;2023-10-13T09:48:53;25.33;;;8.70;;
3967;SDS011;9221;42.646;23.380;2023-10-13T09:51:32;18.80;;;7.60;;
3967;SDS011;9221;42.646;23.380;2023-10-13T09:54:03;26.50;;;8.67;;
3967;SDS011;9221;42.646;23.380;2023-10-13T09:57:17;26.97;;;9.83;;
3967;SDS011;9221;42.646;23.380;2023-10-13T09:59:32;22.73;;;7.53;;
3967;SDS011;9221;42.646;23.380;2023-10-13T10:02:03;26.50;;;7.90;;
3967;SDS011;9221;42.646;23.380;2023-10-13T10:04:34;28.57;;;8.27;;
3967;SDS011;9221;42.646;23.380;2023-10-13T10:07:10;21.30;;;7.70;;
3967;SDS011;9221;42.646;23.380;2023-10-13T10:09:35;28.63;;;8.00;;
3967;SDS011;9221;42.646;23.380;2023-10-13T10:12:09;28.83;;;8.33;;
3967;SDS011;9221;42.646;23.380;2023-10-13T10:17:49;19.57;;;7.37;;
3967;SDS011;9221;42.646;23.380;2023-10-13T10:20:15;21.90;;;7.23;;
3967;SDS011;9221;42.646;23.380;2023-10-13T10:22:58;22.20;;;7.40;;
3967;SDS011;9221;42.646;23.380;2023-10-13T10:25:31;18.93;;;6.30;;
3967;SDS011;9221;42.646;23.380;2023-10-13T10:28:06;22.83;;;6.33;;
3967;SDS011;9221;42.646;23.380;2023-10-13T10:30:37;11.03;;;6.33;;
3967;SDS011;9221;42.646;23.380;2023-10-13T10:33:07;11.70;;;5.70;;
3967;SDS011;9221;42.646;23.380;2023-10-13T10:35:44;19.33;;;5.23;;
3967;SDS011;9221;42.646;23.380;2023-10-13T10:38:11;16.73;;;5.93;;
3967;SDS011;9221;42.646;23.380;2023-10-13T10:43:25;13.13;;;3.70;;
3967;SDS011;9221;42.646;23.380;2023-10-13T10:46:15;10.87;;;3.80;;
3967;SDS011;9221;42.646;23.380;2023-10-13T10:48:42;9.97;;;3.60;;
3967;SDS011;9221;42.646;23.380;2023-10-13T10:51:12;12.13;;;3.30;;
3967;SDS011;9221;42.646;23.380;2023-10-13T10:53:40;14.70;;;4.23;;
3967;SDS011;9221;42.646;23.380;2023-10-13T10:56:13;12.80;;;4.30;;
3967;SDS011;9221;42.646;23.380;2023-10-13T10:58:49;14.03;;;3.70;;
3967;SDS011;9221;42.646;23.380;2023-10-13T11:01:29;8.67;;;3.20;;
3967;SDS011;9221;42.646;23.380;2023-10-13T11:04:09;10.27;;;2.90;;
3967;SDS011;9221;42.646;23.380;2023-10-13T11:06:55;8.70;;;3.50;;
3967;SDS011;9221;42.646;23.380;2023-10-13T11:09:35;11.70;;;3.20;;
3967;SDS011;9221;42.646;23.380;2023-10-13T11:12:11;4.87;;;2.50;;
3967;SDS011;9221;42.646;23.380;2023-10-13T11:14:47;13.83;;;3.80;;
3967;SDS011;9221;42.646;23.380;2023-10-13T11:17:19;12.23;;;3.57;;
3967;SDS011;9221;42.646;23.380;2023-10-13T11:19:49;8.07;;;3.20;;
3967;SDS011;9221;42.646;23.380;2023-10-13T11:22:16;14.67;;;4.30;;
3967;SDS011;9221;42.646;23.380;2023-10-13T11:24:58;13.03;;;3.30;;
3967;SDS011;9221;42.646;23.380;2023-10-13T11:27:31;9.93;;;3.20;;
3967;SDS011;9221;42.646;23.380;2023-10-13T11:30:12;11.63;;;2.80;;
3967;SDS011;9221;42.646;23.380;2023-10-13T11:32:40;9.70;;;2.70;;
3967;SDS011;9221;42.646;23.380;2023-10-13T11:35:10;8.10;;;3.03;;
3967;SDS011;9221;42.646;23.380;2023-10-13T11:37:51;5.90;;;2.03;;
3967;SDS011;9221;42.646;23.380;2023-10-13T11:40:37;9.73;;;3.03;;
3967;SDS011;9221;42.646;23.380;2023-10-13T11:43:24;9.47;;;2.90;;
3967;SDS011;9221;42.646;23.380;2023-10-13T11:45:50;7.70;;;2.90;;
3967;SDS011;9221;42.646;23.380;2023-10-13T11:48:38;7.67;;;2.73;;
3967;SDS011;9221;42.646;23.380;2023-10-13T11:51:07;6.90;;;2.70;;
3967;SDS011;9221;42.646;23.380;2023-10-13T11:53:49;13.27;;;4.13;;
3967;SDS011;9221;42.646;23.380;2023-10-13T11:56:19;13.53;;;3.60;;
3967;SDS011;9221;42.646;23.380;2023-10-13T11:58:49;11.30;;;4.27;;
3967;SDS011;9221;42.646;23.380;2023-10-13T12:01:15;12.40;;;3.17;;
3967;SDS011;9221;42.646;23.380;2023-10-13T12:03:47;9.20;;;2.83;;
3967;SDS011;9221;42.646;23.380;2023-10-13T12:06:32;10.27;;;3.47;;
3967;SDS011;9221;42.646;23.380;2023-10-13T12:09:03;10.20;;;2.53;;
3967;SDS011;9221;42.646;23.380;2023-10-13T12:11:43;15.70;;;2.40;;
3967;SDS011;9221;42.646;23.380;2023-10-13T12:14:13;7.50;;;2.70;;
3967;SDS011;9221;42.646;23.380;2023-10-13T12:16:46;8.43;;;2.27;;
3967;SDS011;9221;42.646;23.380;2023-10-13T12:19:18;9.43;;;2.20;;
3967;SDS011;9221;42.646;23.380;2023-10-13T12:21:51;13.40;;;3.00;;
3967;SDS011;9221;42.646;23.380;2023-10-13T12:24:23;8.03;;;3.03;;
3967;SDS011;9221;42.646;23.380;2023-10-13T12:27:00;6.60;;;2.43;;
3967;SDS011;9221;42.646;23.380;2023-10-13T12:29:48;10.50;;;3.47;;
3967;SDS011;9221;42.646;23.380;2023-10-13T12:32:17;20.47;;;3.17;;
3967;SDS011;9221;42.646;23.380;2023-10-13T12:34:55;12.93;;;2.90;;
3967;SDS011;9221;42.646;23.380;2023-10-13T12:37:25;6.67;;;2.20;;
3967;SDS011;9221;42.646;23.380;2023-10-13T12:40:18;13.07;;;2.80;;
3967;SDS011;9221;42.646;23.380;2023-10-13T12:43:04;6.77;;;2.50;;
3967;SDS011;9221;42.646;23.380;2023-10-13T12:45:49;9.70;;;3.00;;
3967;SDS011;9221;42.646;23.380;2023-10-13T12:48:35;8.10;;;2.53;;
3967;SDS011;9221;42.646;23.380;2023-10-13T12:51:20;8.90;;;2.30;;
3967;SDS011;9221;42.646;23.380;2023-10-13T12:53:56;11.47;;;2.47;;
3967;SDS011;9221;42.646;23.380;2023-10-13T12:56:30;12.10;;;2.63;;
3967;SDS011;9221;42.646;23.380;2023-10-13T12:58:55;13.67;;;2.47;;
3967;SDS011;9221;42.646;23.380;2023-10-13T13:01:21;7.60;;;2.20;;
3967;SDS011;9221;42.646;23.380;2023-10-13T13:06:36;8.73;;;2.60;;
3967;SDS011;9221;42.646;23.380;2023-10-13T13:09:02;4.70;;;1.70;;
3967;SDS011;9221;42.646;23.380;2023-10-13T13:11:28;15.80;;;2.63;;
3967;SDS011;9221;42.646;23.380;2023-10-13T13:13:56;11.73;;;2.40;;
3967;SDS011;9221;42.646;23.380;2023-10-13T13:16:22;13.93;;;3.23;;
3967;SDS011;9221;42.646;23.380;2023-10-13T13:18:55;6.50;;;2.13;;
3967;SDS011;9221;42.646;23.380;2023-10-13T13:21:20;9.03;;;2.20;;
3967;SDS011;9221;42.646;23.380;2023-10-13T13:23:49;12.53;;;2.63;;
3967;SDS011;9221;42.646;23.380;2023-10-13T13:26:20;5.37;;;2.13;;
3967;SDS011;9221;42.646;23.380;2023-10-13T13:28:52;11.27;;;2.17;;
3967;SDS011;9221;42.646;23.380;2023-10-13T13:31:18;5.90;;;2.43;;
3967;SDS011;9221;42.646;23.380;2023-10-13T13:33:56;6.17;;;2.50;;
3967;SDS011;9221;42.646;23.380;2023-10-13T13:36:21;8.23;;;2.37;;
3967;SDS011;9221;42.646;23.380;2023-10-13T13:38:47;10.20;;;2.13;;
3967;SDS011;9221;42.646;23.380;2023-10-13T13:41:19;15.57;;;2.10;;
3967;SDS011;9221;42.646;23.380;2023-10-13T13:43:45;6.60;;;2.23;;
3967;SDS011;9221;42.646;23.380;2023-10-13T13:46:15;10.23;;;2.83;;
3967;SDS011;9221;42.646;23.380;2023-10-13T13:48:44;5.63;;;1.93;;
3967;SDS011;9221;42.646;23.380;2023-10-13T13:51:13;8.97;;;2.63;;
3967;SDS011;9221;42.646;23.380;2023-10-13T13:53:52;16.67;;;2.43;;
3967;SDS011;9221;42.646;23.380;2023-10-13T13:56:19;8.47;;;2.30;;
3967;SDS011;9221;42.646;23.380;2023-10-13T13:58:45;5.50;;;2.37;;
3967;SDS011;9221;42.646;23.380;2023-10-13T14:01:11;14.93;;;2.50;;
3967;SDS011;9221;42.646;23.380;2023-10-13T14:03:43;9.60;;;2.30;;
3967;SDS011;9221;42.646;23.380;2023-10-13T14:06:17;11.90;;;2.63;;
3967;SDS011;9221;42.646;23.380;2023-10-13T14:08:48;15.63;;;1.80;;
3967;SDS011;9221;42.646;23.380;2023-10-13T14:11:16;10.00;;;2.23;;
3967;SDS011;9221;42.646;23.380;2023-10-13T14:14:03;18.00;;;2.67;;
3967;SDS011;9221;42.646;23.380;2023-10-13T14:16:51;4.93;;;2.40;;
3967;SDS011;9221;42.646;23.380;2023-10-13T14:19:18;15.73;;;2.53;;
3967;SDS011;9221;42.646;23.380;2023-10-13T14:24:20;6.60;;;2.57;;
3967;SDS011;9221;42.646;23.380;2023-10-13T14:26:53;5.17;;;1.97;;
3967;SDS011;9221;42.646;23.380;2023-10-13T14:29:22;6.40;;;2.60;;
3967;SDS011;9221;42.646;23.380;2023-10-13T14:31:51;11.90;;;2.47;;
3967;SDS011;9221;42.646;23.380;2023-10-13T14:34:17;7.10;;;2.27;;
3967;SDS011;9221;42.646;23.380;2023-10-13T14:36:42;10.03;;;2.80;;
3967;SDS011;9221;42.646;23.380;2023-10-13T14:39:13;8.23;;;2.63;;
3967;SDS011;9221;42.646;23.380;2023-10-13T14:41:39;7.20;;;2.40;;
3967;SDS011;9221;42.646;23.380;2023-10-13T14:44:05;18.93;;;2.90;;
3967;SDS011;9221;42.646;23.380;2023-10-13T14:46:31;11.73;;;2.93;;
3967;SDS011;9221;42.646;23.380;2023-10-13T14:49:01;10.80;;;3.43;;
3967;SDS011;9221;42.646;23.380;2023-10-13T14:51:27;10.83;;;2.47;;
3967;SDS011;9221;42.646;23.380;2023-10-13T14:53:53;7.23;;;2.47;;
3967;SDS011;9221;42.646;23.380;2023-10-13T14:56:21;19.03;;;9.57;;
3967;SDS011;9221;42.646;23.380;2023-10-13T14:58:51;16.83;;;5.00;;
3967;SDS011;9221;42.646;23.380;2023-10-13T15:01:17;13.80;;;4.50;;
3967;SDS011;9221;42.646;23.380;2023-10-13T15:03:45;8.77;;;4.33;;
3967;SDS011;9221;42.646;23.380;2023-10-13T15:06:17;11.90;;;3.67;;
3967;SDS011;9221;42.646;23.380;2023-10-13T15:08:44;8.10;;;3.17;;
3967;SDS011;9221;42.646;23.380;2023-10-13T15:11:14;10.30;;;2.60;;
3967;SDS011;9221;42.646;23.380;2023-10-13T15:13:40;15.80;;;2.80;;
3967;SDS011;9221;42.646;23.380;2023-10-13T15:19:01;15.10;;;4.43;;
3967;SDS011;9221;42.646;23.380;2023-10-13T15:21:29;13.90;;;3.53;;
3967;SDS011;9221;42.646;23.380;2023-10-13T15:24:02;20.67;;;4.10;;
3967;SDS011;9221;42.646;23.380;2023-10-13T15:26:38;19.30;;;3.43;;
3967;SDS011;9221;42.646;23.380;2023-10-13T15:29:17;22.17;;;3.67;;
3967;SDS011;9221;42.646;23.380;2023-10-13T15:31:50;24.00;;;4.53;;
3967;SDS011;9221;42.646;23.380;2023-10-13T15:34:25;29.17;;;4.63;;
3967;SDS011;9221;42.646;23.380;2023-10-13T15:36:54;16.10;;;4.70;;
3967;SDS011;9221;42.646;23.380;2023-10-13T15:39:21;19.70;;;7.10;;
3967;SDS011;9221;42.646;23.380;2023-10-13T15:41:53;19.83;;;5.23;;
3967;SDS011;9221;42.646;23.380;2023-10-13T15:44:25;11.37;;;4.27;;
3967;SDS011;9221;42.646;23.380;2023-10-13T15:46:55;16.07;;;3.50;;
3967;SDS011;9221;42.646;23.380;2023-10-13T15:49:22;6.77;;;3.10;;
3967;SDS011;9221;42.646;23.380;2023-10-13T15:51:47;9.07;;;3.30;;
3967;SDS011;9221;42.646;23.380;2023-10-13T15:54:14;10.00;;;2.77;;
3967;SDS011;9221;42.646;23.380;2023-10-13T15:56:45;16.37;;;3.50;;
3967;SDS011;9221;42.646;23.380;2023-10-13T15:59:13;11.57;;;2.90;;